sensor_id;sensor_type;location;lat;lon;timestamp;P1;durP1;ratioP1;P2;durP2;ratioP2
19519;SDS011;9904;52.246;20.898;2023-04-15T00:00:55;17.50;;;8.00;;
19519;SDS011;9904;52.246;20.898;2023-04-15T00:03:23;13.37;;;7.40;;
19519;SDS011;9904;52.246;20.898;2023-04-15T00:05:50;12.50;;;7.23;;
19519;SDS011;9904;52.246;20.898;2023-04-15T00:08:17;11.87;;;6.87;;
19519;SDS011;9904;52.246;20.898;2023-04-15T00:10:44;10.93;;;7.10;;
19519;SDS011;9904;52.246;20.898;2023-04-15T00:13:12;12.50;;;7.00;;
19519;SDS011;9904;52.246;20.898;2023-04-15T00:15:38;11.57;;;6.93;;
19519;SDS011;9904;52.246;20.898;2023-04-15T00:18:05;14.33;;;8.23;;
19519;SDS011;9904;52.246;20.898;2023-04-15T00:20:33;12.37;;;7.20;;
19519;SDS011;9904;52.246;20.898;2023-04-15T00:23:01;11.93;;;7.10;;
19519;SDS011;9904;52.246;20.898;2023-04-15T00:25:29;17.23;;;8.10;;
19519;SDS011;9904;52.246;20.898;2023-04-15T00:27:56;11.83;;;7.77;;
19519;SDS011;9904;52.246;20.898;2023-04-15T00:30:23;14.27;;;7.80;;
19519;SDS011;9904;52.246;20.898;2023-04-15T00:32:50;12.70;;;7.67;;
19519;SDS011;9904;52.246;20.898;2023-04-15T00:35:17;17.77;;;7.90;;
19519;SDS011;9904;52.246;20.898;2023-04-15T00:37:44;15.97;;;8.63;;
19519;SDS011;9904;52.246;20.898;2023-04-15T00:40:12;12.37;;;8.10;;
19519;SDS011;9904;52.246;20.898;2023-04-15T00:42:38;16.47;;;8.67;;
19519;SDS011;9904;52.246;20.898;2023-04-15T00:45:05;14.23;;;8.13;;
19519;SDS011;9904;52.246;20.898;2023-04-15T00:47:32;17.80;;;8.83;;
19519;SDS011;9904;52.246;20.898;2023-04-15T00:49:59;15.70;;;9.23;;
19519;SDS011;9904;52.246;20.898;2023-04-15T00:52:25;15.70;;;9.13;;
19519;SDS011;9904;52.246;20.898;2023-04-15T00:54:52;14.67;;;8.77;;
19519;SDS011;9904;52.246;20.898;2023-04-15T00:57:19;15.10;;;8.53;;
19519;SDS011;9904;52.246;20.898;2023-04-15T00:59:47;12.77;;;8.10;;
19519;SDS011;9904;52.246;20.898;2023-04-15T01:02:14;15.27;;;8.60;;
19519;SDS011;9904;52.246;20.898;2023-04-15T01:04:40;13.73;;;8.17;;
19519;SDS011;9904;52.246;20.898;2023-04-15T01:07:07;13.67;;;8.07;;
19519;SDS011;9904;52.246;20.898;2023-04-15T01:09:34;16.77;;;9.40;;
19519;SDS011;9904;52.246;20.898;2023-04-15T01:12:00;17.90;;;9.77;;
19519;SDS011;9904;52.246;20.898;2023-04-15T01:14:28;16.07;;;8.57;;
19519;SDS011;9904;52.246;20.898;2023-04-15T01:16:54;12.87;;;8.27;;
19519;SDS011;9904;52.246;20.898;2023-04-15T01:19:21;18.23;;;8.80;;
19519;SDS011;9904;52.246;20.898;2023-04-15T01:21:48;14.83;;;8.70;;
19519;SDS011;9904;52.246;20.898;2023-04-15T01:24:14;14.93;;;9.10;;
19519;SDS011;9904;52.246;20.898;2023-04-15T01:26:43;18.33;;;9.43;;
19519;SDS011;9904;52.246;20.898;2023-04-15T01:29:10;13.27;;;8.40;;
19519;SDS011;9904;52.246;20.898;2023-04-15T01:31:36;16.33;;;9.20;;
19519;SDS011;9904;52.246;20.898;2023-04-15T01:34:03;15.03;;;9.27;;
19519;SDS011;9904;52.246;20.898;2023-04-15T01:36:30;16.60;;;10.13;;
19519;SDS011;9904;52.246;20.898;2023-04-15T01:38:57;17.50;;;10.80;;
19519;SDS011;9904;52.246;20.898;2023-04-15T01:41:27;16.57;;;10.07;;
19519;SDS011;9904;52.246;20.898;2023-04-15T01:43:54;17.87;;;9.87;;
19519;SDS011;9904;52.246;20.898;2023-04-15T01:46:21;16.80;;;10.10;;
19519;SDS011;9904;52.246;20.898;2023-04-15T01:48:48;16.77;;;10.13;;
19519;SDS011;9904;52.246;20.898;2023-04-15T01:51:14;16.83;;;10.90;;
19519;SDS011;9904;52.246;20.898;2023-04-15T01:53:41;19.27;;;11.37;;
19519;SDS011;9904;52.246;20.898;2023-04-15T01:56:08;22.07;;;11.90;;
19519;SDS011;9904;52.246;20.898;2023-04-15T01:58:34;20.23;;;12.43;;
19519;SDS011;9904;52.246;20.898;2023-04-15T02:01:01;20.77;;;11.60;;
19519;SDS011;9904;52.246;20.898;2023-04-15T02:03:29;19.63;;;10.50;;
19519;SDS011;9904;52.246;20.898;2023-04-15T02:05:56;18.73;;;11.33;;
19519;SDS011;9904;52.246;20.898;2023-04-15T02:08:22;23.67;;;12.10;;
19519;SDS011;9904;52.246;20.898;2023-04-15T02:10:49;20.83;;;12.40;;
19519;SDS011;9904;52.246;20.898;2023-04-15T02:13:15;26.37;;;13.53;;
19519;SDS011;9904;52.246;20.898;2023-04-15T02:15:48;26.83;;;13.73;;
19519;SDS011;9904;52.246;20.898;2023-04-15T02:18:16;24.13;;;13.50;;
19519;SDS011;9904;52.246;20.898;2023-04-15T02:20:42;24.40;;;13.20;;
19519;SDS011;9904;52.246;20.898;2023-04-15T02:23:09;23.63;;;13.57;;
19519;SDS011;9904;52.246;20.898;2023-04-15T02:25:36;28.10;;;14.50;;
19519;SDS011;9904;52.246;20.898;2023-04-15T02:28:04;29.93;;;14.47;;
19519;SDS011;9904;52.246;20.898;2023-04-15T02:30:31;28.47;;;15.33;;
19519;SDS011;9904;52.246;20.898;2023-04-15T02:32:59;27.70;;;14.37;;
19519;SDS011;9904;52.246;20.898;2023-04-15T02:35:26;29.20;;;15.27;;
19519;SDS011;9904;52.246;20.898;2023-04-15T02:37:53;25.37;;;14.40;;
19519;SDS011;9904;52.246;20.898;2023-04-15T02:40:19;32.43;;;16.27;;
19519;SDS011;9904;52.246;20.898;2023-04-15T02:42:46;25.60;;;14.87;;
19519;SDS011;9904;52.246;20.898;2023-04-15T02:45:12;27.43;;;15.37;;
19519;SDS011;9904;52.246;20.898;2023-04-15T02:47:39;28.23;;;15.87;;
19519;SDS011;9904;52.246;20.898;2023-04-15T02:50:07;33.67;;;16.67;;
19519;SDS011;9904;52.246;20.898;2023-04-15T02:52:34;27.73;;;15.87;;
19519;SDS011;9904;52.246;20.898;2023-04-15T02:55:01;31.90;;;15.70;;
19519;SDS011;9904;52.246;20.898;2023-04-15T02:57:28;29.40;;;16.13;;
19519;SDS011;9904;52.246;20.898;2023-04-15T02:59:54;32.20;;;16.93;;
19519;SDS011;9904;52.246;20.898;2023-04-15T03:02:21;29.60;;;17.50;;
19519;SDS011;9904;52.246;20.898;2023-04-15T03:04:48;30.17;;;16.73;;
19519;SDS011;9904;52.246;20.898;2023-04-15T03:07:16;28.13;;;16.43;;
19519;SDS011;9904;52.246;20.898;2023-04-15T03:09:43;30.20;;;16.90;;
19519;SDS011;9904;52.246;20.898;2023-04-15T03:12:09;29.60;;;16.27;;
19519;SDS011;9904;52.246;20.898;2023-04-15T03:14:36;29.47;;;16.83;;
19519;SDS011;9904;52.246;20.898;2023-04-15T03:17:03;27.73;;;15.67;;
19519;SDS011;9904;52.246;20.898;2023-04-15T03:19:29;30.37;;;17.07;;
19519;SDS011;9904;52.246;20.898;2023-04-15T03:21:57;29.70;;;17.00;;
19519;SDS011;9904;52.246;20.898;2023-04-15T03:24:23;28.23;;;16.13;;
19519;SDS011;9904;52.246;20.898;2023-04-15T03:26:50;28.93;;;16.80;;
19519;SDS011;9904;52.246;20.898;2023-04-15T03:29:16;28.43;;;16.70;;
19519;SDS011;9904;52.246;20.898;2023-04-15T03:31:43;27.80;;;16.13;;
19519;SDS011;9904;52.246;20.898;2023-04-15T03:34:09;26.43;;;15.40;;
19519;SDS011;9904;52.246;20.898;2023-04-15T03:36:36;28.90;;;15.87;;
19519;SDS011;9904;52.246;20.898;2023-04-15T03:39:02;25.43;;;14.30;;
19519;SDS011;9904;52.246;20.898;2023-04-15T03:41:29;23.37;;;14.17;;
19519;SDS011;9904;52.246;20.898;2023-04-15T03:43:56;24.10;;;14.43;;
19519;SDS011;9904;52.246;20.898;2023-04-15T03:46:22;26.47;;;14.77;;
19519;SDS011;9904;52.246;20.898;2023-04-15T03:48:49;25.50;;;14.63;;
19519;SDS011;9904;52.246;20.898;2023-04-15T03:51:15;25.97;;;14.27;;
19519;SDS011;9904;52.246;20.898;2023-04-15T03:53:42;25.13;;;13.87;;
19519;SDS011;9904;52.246;20.898;2023-04-15T03:56:09;24.00;;;14.03;;
19519;SDS011;9904;52.246;20.898;2023-04-15T03:58:35;26.63;;;13.57;;
19519;SDS011;9904;52.246;20.898;2023-04-15T04:01:02;24.33;;;14.07;;
19519;SDS011;9904;52.246;20.898;2023-04-15T04:03:29;26.77;;;14.27;;
19519;SDS011;9904;52.246;20.898;2023-04-15T04:05:56;28.00;;;14.87;;
19519;SDS011;9904;52.246;20.898;2023-04-15T04:08:22;24.90;;;15.63;;
19519;SDS011;9904;52.246;20.898;2023-04-15T04:10:49;34.23;;;16.60;;
19519;SDS011;9904;52.246;20.898;2023-04-15T04:13:16;25.33;;;15.57;;
19519;SDS011;9904;52.246;20.898;2023-04-15T04:15:42;25.80;;;15.60;;
19519;SDS011;9904;52.246;20.898;2023-04-15T04:18:09;25.67;;;15.57;;
19519;SDS011;9904;52.246;20.898;2023-04-15T04:20:35;25.57;;;15.40;;
19519;SDS011;9904;52.246;20.898;2023-04-15T04:23:02;27.90;;;15.60;;
19519;SDS011;9904;52.246;20.898;2023-04-15T04:25:29;27.53;;;15.30;;
19519;SDS011;9904;52.246;20.898;2023-04-15T04:27:56;28.67;;;16.27;;
19519;SDS011;9904;52.246;20.898;2023-04-15T04:30:22;27.37;;;15.17;;
19519;SDS011;9904;52.246;20.898;2023-04-15T04:32:49;24.30;;;15.20;;
19519;SDS011;9904;52.246;20.898;2023-04-15T04:35:16;29.13;;;16.20;;
19519;SDS011;9904;52.246;20.898;2023-04-15T04:37:43;27.13;;;15.67;;
19519;SDS011;9904;52.246;20.898;2023-04-15T04:40:10;26.47;;;15.70;;
19519;SDS011;9904;52.246;20.898;2023-04-15T04:42:36;26.97;;;16.60;;
19519;SDS011;9904;52.246;20.898;2023-04-15T04:45:05;31.00;;;15.37;;
19519;SDS011;9904;52.246;20.898;2023-04-15T04:47:32;32.13;;;15.77;;
19519;SDS011;9904;52.246;20.898;2023-04-15T04:49:59;23.13;;;15.17;;
19519;SDS011;9904;52.246;20.898;2023-04-15T04:52:25;26.87;;;15.57;;
19519;SDS011;9904;52.246;20.898;2023-04-15T04:54:52;27.47;;;15.40;;
19519;SDS011;9904;52.246;20.898;2023-04-15T04:57:19;24.37;;;15.57;;
19519;SDS011;9904;52.246;20.898;2023-04-15T04:59:45;26.43;;;15.83;;
19519;SDS011;9904;52.246;20.898;2023-04-15T05:02:12;29.43;;;16.13;;
19519;SDS011;9904;52.246;20.898;2023-04-15T05:04:39;27.73;;;14.90;;
19519;SDS011;9904;52.246;20.898;2023-04-15T05:07:06;25.03;;;14.20;;
19519;SDS011;9904;52.246;20.898;2023-04-15T05:09:33;27.83;;;15.20;;
19519;SDS011;9904;52.246;20.898;2023-04-15T05:12:04;28.20;;;15.37;;
19519;SDS011;9904;52.246;20.898;2023-04-15T05:14:31;33.50;;;16.70;;
19519;SDS011;9904;52.246;20.898;2023-04-15T05:16:58;30.27;;;15.47;;
19519;SDS011;9904;52.246;20.898;2023-04-15T05:19:25;32.07;;;16.40;;
19519;SDS011;9904;52.246;20.898;2023-04-15T05:21:51;26.93;;;15.90;;
19519;SDS011;9904;52.246;20.898;2023-04-15T05:24:18;27.03;;;15.87;;
19519;SDS011;9904;52.246;20.898;2023-04-15T05:26:44;25.77;;;15.70;;
19519;SDS011;9904;52.246;20.898;2023-04-15T05:29:11;25.20;;;15.67;;
19519;SDS011;9904;52.246;20.898;2023-04-15T05:31:37;25.90;;;14.77;;
19519;SDS011;9904;52.246;20.898;2023-04-15T05:34:04;27.60;;;14.27;;
19519;SDS011;9904;52.246;20.898;2023-04-15T05:36:32;27.13;;;14.03;;
19519;SDS011;9904;52.246;20.898;2023-04-15T05:38:58;27.07;;;14.27;;
19519;SDS011;9904;52.246;20.898;2023-04-15T05:41:26;27.73;;;15.00;;
19519;SDS011;9904;52.246;20.898;2023-04-15T05:43:52;25.30;;;14.47;;
19519;SDS011;9904;52.246;20.898;2023-04-15T05:46:19;28.67;;;14.47;;
19519;SDS011;9904;52.246;20.898;2023-04-15T05:48:47;27.60;;;14.17;;
19519;SDS011;9904;52.246;20.898;2023-04-15T05:51:13;27.97;;;15.07;;
19519;SDS011;9904;52.246;20.898;2023-04-15T05:53:40;27.53;;;14.13;;
19519;SDS011;9904;52.246;20.898;2023-04-15T05:56:07;26.60;;;14.17;;
19519;SDS011;9904;52.246;20.898;2023-04-15T05:58:34;24.43;;;13.47;;
19519;SDS011;9904;52.246;20.898;2023-04-15T06:01:01;24.43;;;13.37;;
19519;SDS011;9904;52.246;20.898;2023-04-15T06:03:29;24.13;;;12.63;;
19519;SDS011;9904;52.246;20.898;2023-04-15T06:05:56;24.50;;;13.40;;
19519;SDS011;9904;52.246;20.898;2023-04-15T06:08:23;24.70;;;13.73;;
19519;SDS011;9904;52.246;20.898;2023-04-15T06:10:50;26.80;;;13.90;;
19519;SDS011;9904;52.246;20.898;2023-04-15T06:13:16;26.63;;;13.60;;
19519;SDS011;9904;52.246;20.898;2023-04-15T06:15:43;22.67;;;12.83;;
19519;SDS011;9904;52.246;20.898;2023-04-15T06:18:10;23.10;;;13.50;;
19519;SDS011;9904;52.246;20.898;2023-04-15T06:20:36;27.63;;;13.00;;
19519;SDS011;9904;52.246;20.898;2023-04-15T06:23:03;22.07;;;13.10;;
19519;SDS011;9904;52.246;20.898;2023-04-15T06:25:30;20.67;;;12.07;;
19519;SDS011;9904;52.246;20.898;2023-04-15T06:27:57;24.73;;;13.37;;
19519;SDS011;9904;52.246;20.898;2023-04-15T06:30:24;25.77;;;13.23;;
19519;SDS011;9904;52.246;20.898;2023-04-15T06:32:50;24.07;;;13.30;;
19519;SDS011;9904;52.246;20.898;2023-04-15T06:35:17;25.63;;;13.10;;
19519;SDS011;9904;52.246;20.898;2023-04-15T06:37:44;23.80;;;12.10;;
19519;SDS011;9904;52.246;20.898;2023-04-15T06:40:11;27.37;;;13.20;;
19519;SDS011;9904;52.246;20.898;2023-04-15T06:42:38;23.27;;;12.23;;
19519;SDS011;9904;52.246;20.898;2023-04-15T06:45:05;24.87;;;12.40;;
19519;SDS011;9904;52.246;20.898;2023-04-15T06:47:32;23.00;;;11.83;;
19519;SDS011;9904;52.246;20.898;2023-04-15T06:49:58;22.07;;;11.93;;
19519;SDS011;9904;52.246;20.898;2023-04-15T06:52:25;25.03;;;12.57;;
19519;SDS011;9904;52.246;20.898;2023-04-15T06:54:52;24.93;;;14.00;;
19519;SDS011;9904;52.246;20.898;2023-04-15T06:57:18;26.80;;;13.13;;
19519;SDS011;9904;52.246;20.898;2023-04-15T06:59:45;20.57;;;12.10;;
19519;SDS011;9904;52.246;20.898;2023-04-15T07:02:12;21.83;;;11.97;;
19519;SDS011;9904;52.246;20.898;2023-04-15T07:04:39;24.93;;;13.10;;
19519;SDS011;9904;52.246;20.898;2023-04-15T07:07:06;19.07;;;11.53;;
19519;SDS011;9904;52.246;20.898;2023-04-15T07:09:33;21.60;;;12.03;;
19519;SDS011;9904;52.246;20.898;2023-04-15T07:11:59;24.70;;;11.67;;
19519;SDS011;9904;52.246;20.898;2023-04-15T07:14:26;22.13;;;12.63;;
19519;SDS011;9904;52.246;20.898;2023-04-15T07:16:53;20.87;;;12.23;;
19519;SDS011;9904;52.246;20.898;2023-04-15T07:19:19;24.17;;;12.23;;
19519;SDS011;9904;52.246;20.898;2023-04-15T07:21:47;22.27;;;11.93;;
19519;SDS011;9904;52.246;20.898;2023-04-15T07:24:13;18.40;;;11.50;;
19519;SDS011;9904;52.246;20.898;2023-04-15T07:26:43;23.67;;;11.53;;
19519;SDS011;9904;52.246;20.898;2023-04-15T07:29:10;20.63;;;10.73;;
19519;SDS011;9904;52.246;20.898;2023-04-15T07:31:37;18.93;;;11.00;;
19519;SDS011;9904;52.246;20.898;2023-04-15T07:34:05;19.23;;;11.23;;
19519;SDS011;9904;52.246;20.898;2023-04-15T07:36:32;21.80;;;10.10;;
19519;SDS011;9904;52.246;20.898;2023-04-15T07:38:59;22.87;;;11.33;;
19519;SDS011;9904;52.246;20.898;2023-04-15T07:41:29;20.93;;;11.67;;
19519;SDS011;9904;52.246;20.898;2023-04-15T07:43:56;21.63;;;11.70;;
19519;SDS011;9904;52.246;20.898;2023-04-15T07:46:23;17.43;;;10.87;;
19519;SDS011;9904;52.246;20.898;2023-04-15T07:48:50;18.50;;;11.27;;
19519;SDS011;9904;52.246;20.898;2023-04-15T07:51:16;19.07;;;10.07;;
19519;SDS011;9904;52.246;20.898;2023-04-15T07:53:44;17.60;;;10.57;;
19519;SDS011;9904;52.246;20.898;2023-04-15T07:56:11;18.83;;;10.67;;
19519;SDS011;9904;52.246;20.898;2023-04-15T07:58:37;17.30;;;10.03;;
19519;SDS011;9904;52.246;20.898;2023-04-15T08:01:04;22.30;;;10.47;;
19519;SDS011;9904;52.246;20.898;2023-04-15T08:03:31;18.47;;;10.67;;
19519;SDS011;9904;52.246;20.898;2023-04-15T08:05:58;22.67;;;10.60;;
19519;SDS011;9904;52.246;20.898;2023-04-15T08:08:25;17.00;;;9.23;;
19519;SDS011;9904;52.246;20.898;2023-04-15T08:10:52;16.27;;;9.83;;
19519;SDS011;9904;52.246;20.898;2023-04-15T08:13:19;14.53;;;8.80;;
19519;SDS011;9904;52.246;20.898;2023-04-15T08:15:52;17.53;;;9.90;;
19519;SDS011;9904;52.246;20.898;2023-04-15T08:18:40;14.73;;;9.00;;
19519;SDS011;9904;52.246;20.898;2023-04-15T08:21:07;15.77;;;9.27;;
19519;SDS011;9904;52.246;20.898;2023-04-15T08:23:33;18.43;;;9.83;;
19519;SDS011;9904;52.246;20.898;2023-04-15T08:26:00;13.47;;;8.63;;
19519;SDS011;9904;52.246;20.898;2023-04-15T08:28:28;15.03;;;8.50;;
19519;SDS011;9904;52.246;20.898;2023-04-15T08:30:54;14.80;;;8.70;;
19519;SDS011;9904;52.246;20.898;2023-04-15T08:33:21;14.57;;;8.77;;
19519;SDS011;9904;52.246;20.898;2023-04-15T08:35:48;15.03;;;8.80;;
19519;SDS011;9904;52.246;20.898;2023-04-15T08:38:14;16.53;;;9.20;;
19519;SDS011;9904;52.246;20.898;2023-04-15T08:40:42;20.57;;;9.40;;
19519;SDS011;9904;52.246;20.898;2023-04-15T08:43:23;15.00;;;8.63;;
19519;SDS011;9904;52.246;20.898;2023-04-15T08:45:55;16.80;;;9.03;;
19519;SDS011;9904;52.246;20.898;2023-04-15T08:48:25;19.83;;;8.43;;
19519;SDS011;9904;52.246;20.898;2023-04-15T08:50:54;15.37;;;8.10;;
19519;SDS011;9904;52.246;20.898;2023-04-15T08:53:20;15.65;;;9.05;;
19519;SDS011;9904;52.246;20.898;2023-04-15T08:55:50;12.00;;;7.47;;
19519;SDS011;9904;52.246;20.898;2023-04-15T08:58:18;12.20;;;7.43;;
19519;SDS011;9904;52.246;20.898;2023-04-15T09:00:45;14.50;;;7.47;;
19519;SDS011;9904;52.246;20.898;2023-04-15T09:03:14;16.50;;;8.03;;
19519;SDS011;9904;52.246;20.898;2023-04-15T09:05:42;11.33;;;6.83;;
19519;SDS011;9904;52.246;20.898;2023-04-15T09:08:09;11.80;;;6.50;;
19519;SDS011;9904;52.246;20.898;2023-04-15T09:10:36;12.10;;;7.23;;
19519;SDS011;9904;52.246;20.898;2023-04-15T09:13:03;14.33;;;8.03;;
19519;SDS011;9904;52.246;20.898;2023-04-15T09:15:29;14.20;;;7.23;;
19519;SDS011;9904;52.246;20.898;2023-04-15T09:17:58;10.33;;;6.40;;
19519;SDS011;9904;52.246;20.898;2023-04-15T09:20:25;13.83;;;6.63;;
19519;SDS011;9904;52.246;20.898;2023-04-15T09:22:51;8.90;;;6.20;;
19519;SDS011;9904;52.246;20.898;2023-04-15T09:27:50;10.37;;;5.83;;
19519;SDS011;9904;52.246;20.898;2023-04-15T09:30:34;10.47;;;6.10;;
19519;SDS011;9904;52.246;20.898;2023-04-15T09:33:01;8.63;;;5.73;;
19519;SDS011;9904;52.246;20.898;2023-04-15T09:35:34;9.87;;;5.40;;
19519;SDS011;9904;52.246;20.898;2023-04-15T09:38:06;8.53;;;4.97;;
19519;SDS011;9904;52.246;20.898;2023-04-15T09:40:36;8.67;;;5.50;;
19519;SDS011;9904;52.246;20.898;2023-04-15T09:43:07;10.50;;;6.33;;
19519;SDS011;9904;52.246;20.898;2023-04-15T09:45:35;10.33;;;6.23;;
19519;SDS011;9904;52.246;20.898;2023-04-15T09:48:18;11.57;;;5.80;;
19519;SDS011;9904;52.246;20.898;2023-04-15T09:50:48;9.70;;;5.70;;
19519;SDS011;9904;52.246;20.898;2023-04-15T09:53:18;10.77;;;5.17;;
19519;SDS011;9904;52.246;20.898;2023-04-15T09:55:53;9.00;;;5.60;;
19519;SDS011;9904;52.246;20.898;2023-04-15T09:58:25;11.83;;;5.83;;
19519;SDS011;9904;52.246;20.898;2023-04-15T10:00:53;7.73;;;5.43;;
19519;SDS011;9904;52.246;20.898;2023-04-15T10:03:23;7.73;;;5.17;;
19519;SDS011;9904;52.246;20.898;2023-04-15T10:05:51;10.80;;;5.87;;
19519;SDS011;9904;52.246;20.898;2023-04-15T10:08:20;9.57;;;6.40;;
19519;SDS011;9904;52.246;20.898;2023-04-15T10:10:49;10.23;;;6.50;;
19519;SDS011;9904;52.246;20.898;2023-04-15T10:13:20;10.57;;;6.43;;
19519;SDS011;9904;52.246;20.898;2023-04-15T10:15:55;9.23;;;5.80;;
19519;SDS011;9904;52.246;20.898;2023-04-15T10:18:24;9.47;;;5.73;;
19519;SDS011;9904;52.246;20.898;2023-04-15T10:20:52;14.30;;;6.30;;
19519;SDS011;9904;52.246;20.898;2023-04-15T10:23:19;9.80;;;5.57;;
19519;SDS011;9904;52.246;20.898;2023-04-15T10:25:48;7.50;;;5.00;;
19519;SDS011;9904;52.246;20.898;2023-04-15T10:28:15;10.47;;;5.33;;
19519;SDS011;9904;52.246;20.898;2023-04-15T10:30:42;8.97;;;5.20;;
19519;SDS011;9904;52.246;20.898;2023-04-15T10:33:09;13.87;;;6.23;;
19519;SDS011;9904;52.246;20.898;2023-04-15T10:35:36;8.80;;;5.40;;
19519;SDS011;9904;52.246;20.898;2023-04-15T10:38:29;9.40;;;5.40;;
19519;SDS011;9904;52.246;20.898;2023-04-15T10:41:16;8.97;;;5.93;;
19519;SDS011;9904;52.246;20.898;2023-04-15T10:43:47;12.57;;;5.77;;
19519;SDS011;9904;52.246;20.898;2023-04-15T10:46:37;7.60;;;5.03;;
19519;SDS011;9904;52.246;20.898;2023-04-15T10:49:11;7.83;;;4.67;;
19519;SDS011;9904;52.246;20.898;2023-04-15T10:51:40;11.07;;;5.20;;
19519;SDS011;9904;52.246;20.898;2023-04-15T10:54:15;7.30;;;4.60;;
19519;SDS011;9904;52.246;20.898;2023-04-15T11:05:09;8.03;;;4.53;;
19519;SDS011;9904;52.246;20.898;2023-04-15T11:07:38;9.93;;;4.87;;
19519;SDS011;9904;52.246;20.898;2023-04-15T11:12:39;8.33;;;4.57;;
19519;SDS011;9904;52.246;20.898;2023-04-15T11:18:15;8.63;;;4.83;;
19519;SDS011;9904;52.246;20.898;2023-04-15T11:20:50;12.27;;;4.77;;
19519;SDS011;9904;52.246;20.898;2023-04-15T11:23:31;7.87;;;4.90;;
19519;SDS011;9904;52.246;20.898;2023-04-15T11:26:01;7.23;;;4.80;;
19519;SDS011;9904;52.246;20.898;2023-04-15T11:28:35;10.27;;;5.33;;
19519;SDS011;9904;52.246;20.898;2023-04-15T11:31:11;8.47;;;4.80;;
19519;SDS011;9904;52.246;20.898;2023-04-15T11:33:55;6.83;;;4.80;;
19519;SDS011;9904;52.246;20.898;2023-04-15T11:36:24;9.43;;;4.77;;
19519;SDS011;9904;52.246;20.898;2023-04-15T11:38:52;11.17;;;5.00;;
19519;SDS011;9904;52.246;20.898;2023-04-15T11:41:19;8.47;;;4.30;;
19519;SDS011;9904;52.246;20.898;2023-04-15T11:43:47;9.10;;;4.63;;
19519;SDS011;9904;52.246;20.898;2023-04-15T11:46:15;6.93;;;4.30;;
19519;SDS011;9904;52.246;20.898;2023-04-15T11:48:43;10.70;;;5.00;;
19519;SDS011;9904;52.246;20.898;2023-04-15T11:51:10;8.67;;;4.93;;
19519;SDS011;9904;52.246;20.898;2023-04-15T11:56:08;14.73;;;7.47;;
19519;SDS011;9904;52.246;20.898;2023-04-15T11:58:36;7.00;;;4.77;;
19519;SDS011;9904;52.246;20.898;2023-04-15T12:01:03;8.80;;;4.80;;
19519;SDS011;9904;52.246;20.898;2023-04-15T12:03:41;12.10;;;4.83;;
19519;SDS011;9904;52.246;20.898;2023-04-15T12:06:13;10.20;;;4.90;;
19519;SDS011;9904;52.246;20.898;2023-04-15T12:16:30;9.40;;;4.57;;
19519;SDS011;9904;52.246;20.898;2023-04-15T12:19:04;10.40;;;4.13;;
19519;SDS011;9904;52.246;20.898;2023-04-15T12:21:45;7.70;;;3.67;;
19519;SDS011;9904;52.246;20.898;2023-04-15T12:24:13;8.43;;;3.57;;
19519;SDS011;9904;52.246;20.898;2023-04-15T12:29:09;5.60;;;3.47;;
19519;SDS011;9904;52.246;20.898;2023-04-15T12:31:43;9.83;;;4.00;;
19519;SDS011;9904;52.246;20.898;2023-04-15T12:34:17;7.77;;;4.03;;
19519;SDS011;9904;52.246;20.898;2023-04-15T12:36:45;7.33;;;4.00;;
19519;SDS011;9904;52.246;20.898;2023-04-15T12:39:12;7.33;;;4.60;;
19519;SDS011;9904;52.246;20.898;2023-04-15T12:41:38;8.87;;;5.40;;
19519;SDS011;9904;52.246;20.898;2023-04-15T12:44:05;12.10;;;5.63;;
19519;SDS011;9904;52.246;20.898;2023-04-15T12:46:32;10.90;;;5.67;;
19519;SDS011;9904;52.246;20.898;2023-04-15T12:48:58;8.20;;;5.77;;
19519;SDS011;9904;52.246;20.898;2023-04-15T12:51:25;8.27;;;5.37;;
19519;SDS011;9904;52.246;20.898;2023-04-15T12:53:52;13.37;;;6.33;;
19519;SDS011;9904;52.246;20.898;2023-04-15T12:56:19;15.30;;;6.97;;
19519;SDS011;9904;52.246;20.898;2023-04-15T12:58:45;11.17;;;6.30;;
19519;SDS011;9904;52.246;20.898;2023-04-15T13:01:12;12.00;;;6.77;;
19519;SDS011;9904;52.246;20.898;2023-04-15T13:03:39;13.97;;;7.57;;
19519;SDS011;9904;52.246;20.898;2023-04-15T13:06:06;15.47;;;6.90;;
19519;SDS011;9904;52.246;20.898;2023-04-15T13:08:33;10.27;;;6.03;;
19519;SDS011;9904;52.246;20.898;2023-04-15T13:11:03;8.53;;;6.00;;
19519;SDS011;9904;52.246;20.898;2023-04-15T13:13:31;11.20;;;5.90;;
19519;SDS011;9904;52.246;20.898;2023-04-15T13:15:58;7.37;;;5.00;;
19519;SDS011;9904;52.246;20.898;2023-04-15T13:18:25;8.57;;;5.40;;
19519;SDS011;9904;52.246;20.898;2023-04-15T13:20:53;9.07;;;5.67;;
19519;SDS011;9904;52.246;20.898;2023-04-15T13:23:20;8.97;;;4.53;;
19519;SDS011;9904;52.246;20.898;2023-04-15T13:25:47;8.07;;;4.00;;
19519;SDS011;9904;52.246;20.898;2023-04-15T13:28:13;6.20;;;3.60;;
19519;SDS011;9904;52.246;20.898;2023-04-15T13:30:40;6.07;;;3.30;;
19519;SDS011;9904;52.246;20.898;2023-04-15T13:33:06;8.70;;;3.80;;
19519;SDS011;9904;52.246;20.898;2023-04-15T13:35:33;7.07;;;3.63;;
19519;SDS011;9904;52.246;20.898;2023-04-15T13:38:00;7.50;;;4.10;;
19519;SDS011;9904;52.246;20.898;2023-04-15T13:40:28;6.43;;;4.03;;
19519;SDS011;9904;52.246;20.898;2023-04-15T13:42:54;8.90;;;3.90;;
19519;SDS011;9904;52.246;20.898;2023-04-15T13:45:21;7.80;;;4.10;;
19519;SDS011;9904;52.246;20.898;2023-04-15T13:47:48;7.00;;;4.40;;
19519;SDS011;9904;52.246;20.898;2023-04-15T13:50:14;6.43;;;4.17;;
19519;SDS011;9904;52.246;20.898;2023-04-15T13:52:41;6.60;;;3.43;;
19519;SDS011;9904;52.246;20.898;2023-04-15T13:55:08;5.77;;;3.20;;
19519;SDS011;9904;52.246;20.898;2023-04-15T13:57:45;4.07;;;2.80;;
19519;SDS011;9904;52.246;20.898;2023-04-15T14:00:12;4.93;;;3.10;;
19519;SDS011;9904;52.246;20.898;2023-04-15T14:02:39;7.13;;;3.63;;
19519;SDS011;9904;52.246;20.898;2023-04-15T14:05:07;6.63;;;3.87;;
19519;SDS011;9904;52.246;20.898;2023-04-15T14:07:36;6.07;;;3.17;;
19519;SDS011;9904;52.246;20.898;2023-04-15T14:10:03;9.97;;;4.13;;
19519;SDS011;9904;52.246;20.898;2023-04-15T14:12:30;5.73;;;2.80;;
19519;SDS011;9904;52.246;20.898;2023-04-15T14:14:56;4.47;;;2.80;;
19519;SDS011;9904;52.246;20.898;2023-04-15T14:17:23;3.60;;;2.33;;
19519;SDS011;9904;52.246;20.898;2023-04-15T14:19:50;6.73;;;2.80;;
19519;SDS011;9904;52.246;20.898;2023-04-15T14:22:17;4.57;;;2.87;;
19519;SDS011;9904;52.246;20.898;2023-04-15T14:24:44;4.93;;;2.60;;
19519;SDS011;9904;52.246;20.898;2023-04-15T14:27:11;4.40;;;2.83;;
19519;SDS011;9904;52.246;20.898;2023-04-15T14:29:37;5.40;;;2.60;;
19519;SDS011;9904;52.246;20.898;2023-04-15T14:32:04;3.83;;;2.40;;
19519;SDS011;9904;52.246;20.898;2023-04-15T14:34:37;3.83;;;2.43;;
19519;SDS011;9904;52.246;20.898;2023-04-15T14:37:04;3.97;;;2.50;;
19519;SDS011;9904;52.246;20.898;2023-04-15T14:39:31;3.90;;;1.90;;
19519;SDS011;9904;52.246;20.898;2023-04-15T14:41:58;2.87;;;2.00;;
19519;SDS011;9904;52.246;20.898;2023-04-15T14:44:25;3.73;;;2.30;;
19519;SDS011;9904;52.246;20.898;2023-04-15T14:46:51;7.47;;;2.30;;
19519;SDS011;9904;52.246;20.898;2023-04-15T14:49:18;4.00;;;2.10;;
19519;SDS011;9904;52.246;20.898;2023-04-15T14:51:45;6.33;;;2.50;;
19519;SDS011;9904;52.246;20.898;2023-04-15T14:54:11;4.67;;;2.17;;
19519;SDS011;9904;52.246;20.898;2023-04-15T14:56:38;5.00;;;3.07;;
19519;SDS011;9904;52.246;20.898;2023-04-15T14:59:04;7.30;;;3.40;;
19519;SDS011;9904;52.246;20.898;2023-04-15T15:01:32;9.83;;;5.33;;
19519;SDS011;9904;52.246;20.898;2023-04-15T15:03:59;17.33;;;7.63;;